createdAt,value
2018-01-20T00:02:16.033Z,2.00
2018-01-20T00:04:45.196Z,2.10
2018-01-20T00:07:13.567Z,2.00
2018-01-20T00:09:53.212Z,2.10
2018-01-20T00:12:21.668Z,2.10
2018-01-20T00:14:50.035Z,2.10
2018-01-20T00:17:18.412Z,2.00
2018-01-20T00:19:46.831Z,2.10
2018-01-20T00:22:28.792Z,2.10
2018-01-20T00:25:03.163Z,2.10
2018-01-20T00:27:37.764Z,2.10
2018-01-20T00:30:06.132Z,2.10
2018-01-20T00:32:34.739Z,2.10
2018-01-20T00:35:03.138Z,2.10
2018-01-20T00:37:32.315Z,2.10
2018-01-20T00:40:00.677Z,2.00
2018-01-20T00:42:29.402Z,2.00
2018-01-20T00:44:58.628Z,2.00
2018-01-20T00:47:27.107Z,2.00
2018-01-20T00:49:55.493Z,2.10
2018-01-20T00:52:23.867Z,2.10
2018-01-20T00:54:52.300Z,2.10
2018-01-20T00:57:20.708Z,2.10
2018-01-20T00:59:49.072Z,2.10
2018-01-20T01:02:18.241Z,2.20
2018-01-20T01:04:46.619Z,2.10
2018-01-20T01:07:15.016Z,2.10
2018-01-20T01:09:44.139Z,2.20
2018-01-20T01:12:12.527Z,2.10
2018-01-20T01:14:40.895Z,2.10
2018-01-20T01:17:09.251Z,2.10
2018-01-20T01:19:37.628Z,2.00
2018-01-20T01:22:06.760Z,2.10
2018-01-20T01:24:35.756Z,2.10
2018-01-20T01:27:04.136Z,2.10
2018-01-20T01:29:32.515Z,2.10
2018-01-20T01:32:00.880Z,2.10
2018-01-20T01:34:29.286Z,2.10
2018-01-20T01:36:57.660Z,2.20
2018-01-20T01:39:26.032Z,2.10
2018-01-20T01:41:54.415Z,2.10
2018-01-20T01:44:22.778Z,2.10
2018-01-20T01:46:51.142Z,2.10
2018-01-20T01:49:19.512Z,2.20
2018-01-20T01:51:47.881Z,2.20
2018-01-20T01:54:17.000Z,2.30
2018-01-20T01:56:45.376Z,2.20
2018-01-20T01:59:13.744Z,2.30
2018-01-20T02:01:42.099Z,2.30
2018-01-20T02:04:11.239Z,2.30
2018-01-20T02:06:39.604Z,2.30
2018-01-20T02:09:07.988Z,2.30
2018-01-20T02:11:36.364Z,2.30
2018-01-20T02:14:04.730Z,2.30
2018-01-20T02:16:33.113Z,2.40
2018-01-20T02:19:01.501Z,2.40
2018-01-20T02:21:29.865Z,2.40
2018-01-20T02:23:58.228Z,2.40
2018-01-20T02:26:27.377Z,2.40
2018-01-20T02:28:55.740Z,2.30
2018-01-20T02:31:24.107Z,2.40
2018-01-20T02:33:52.481Z,2.40
2018-01-20T02:36:20.839Z,2.40
2018-01-20T02:38:49.968Z,2.50
2018-01-20T02:41:18.346Z,2.40
2018-01-20T02:43:46.701Z,2.50
2018-01-20T02:46:15.055Z,2.40
2018-01-20T02:48:44.196Z,2.50
2018-01-20T02:51:12.670Z,2.50
2018-01-20T02:53:41.028Z,2.50
2018-01-20T02:56:09.431Z,2.50
2018-01-20T02:58:37.869Z,2.50
2018-01-20T03:01:06.266Z,2.50
2018-01-20T03:03:34.656Z,2.50
2018-01-20T03:06:03.011Z,2.50
2018-01-20T03:08:32.146Z,2.50
2018-01-20T03:11:00.524Z,2.50
2018-01-20T03:13:28.886Z,2.40
2018-01-20T03:15:57.243Z,2.40
2018-01-20T03:18:26.397Z,2.40
2018-01-20T03:20:55.524Z,2.50
2018-01-20T03:23:24.640Z,2.40
2018-01-20T03:25:53.015Z,2.40
2018-01-20T03:28:21.388Z,2.50
2018-01-20T03:30:50.515Z,2.40
2018-01-20T03:33:18.918Z,2.40
2018-01-20T03:35:47.274Z,2.40
2018-01-20T03:38:15.634Z,2.40
2018-01-20T03:40:44.017Z,2.40
2018-01-20T03:43:12.371Z,2.40
2018-01-20T03:45:41.504Z,2.40
2018-01-20T03:48:09.883Z,2.40
2018-01-20T03:50:38.277Z,2.40
2018-01-20T03:53:06.531Z,2.40
2018-01-20T03:55:34.929Z,2.40
2018-01-20T03:58:03.298Z,2.40
2018-01-20T04:00:31.652Z,2.40
2018-01-20T04:03:00.427Z,2.40
2018-01-20T04:05:28.790Z,2.50
2018-01-20T04:07:57.926Z,2.40
2018-01-20T04:10:26.584Z,2.40
2018-01-20T04:12:55.715Z,2.40
2018-01-20T04:15:23.891Z,2.40
2018-01-20T04:17:52.288Z,2.40
2018-01-20T04:20:20.668Z,2.40
2018-01-20T04:22:49.027Z,2.40
2018-01-20T04:25:17.420Z,2.40
2018-01-20T04:27:45.781Z,2.40
2018-01-20T04:30:14.142Z,2.40
2018-01-20T04:32:42.511Z,2.30
2018-01-20T04:35:10.876Z,2.30
2018-01-20T04:37:39.994Z,2.40
2018-01-20T04:40:08.758Z,2.30
2018-01-20T04:42:37.873Z,2.40
2018-01-20T04:45:06.231Z,2.40
2018-01-20T04:47:35.691Z,2.40
2018-01-20T04:50:04.074Z,2.40
2018-01-20T04:52:32.448Z,2.40
2018-01-20T04:55:00.830Z,2.40
2018-01-20T04:57:29.644Z,2.40
2018-01-20T04:59:58.778Z,2.40
2018-01-20T05:02:26.835Z,2.40
2018-01-20T05:04:55.196Z,2.40
2018-01-20T05:07:24.367Z,2.40
2018-01-20T05:09:52.798Z,2.40
2018-01-20T05:12:21.174Z,2.30
2018-01-20T05:14:49.536Z,2.30
2018-01-20T05:17:17.911Z,2.30
2018-01-20T05:19:47.035Z,2.30
2018-01-20T05:22:15.397Z,2.30
2018-01-20T05:24:43.773Z,2.40
2018-01-20T05:27:12.140Z,2.40
2018-01-20T05:29:40.514Z,2.50
2018-01-20T05:32:09.654Z,2.40
2018-01-20T05:34:38.002Z,2.40
2018-01-20T05:37:06.395Z,2.40
2018-01-20T05:39:34.785Z,2.50
2018-01-20T05:42:03.135Z,2.50
2018-01-20T05:44:31.532Z,2.50
2018-01-20T05:46:59.908Z,2.50
2018-01-20T05:49:28.259Z,2.50
2018-01-20T05:51:56.639Z,2.50
2018-01-20T05:54:25.020Z,2.40
2018-01-20T05:56:53.383Z,2.40
2018-01-20T05:59:22.520Z,2.40
2018-01-20T06:01:50.891Z,2.40
2018-01-20T06:04:19.259Z,2.40
2018-01-20T06:06:47.623Z,2.40
2018-01-20T06:09:16.007Z,2.40
2018-01-20T06:11:44.374Z,2.40
2018-01-20T06:14:13.538Z,2.50
2018-01-20T06:16:42.467Z,2.50
2018-01-20T06:19:11.586Z,2.50
2018-01-20T06:21:39.960Z,2.50
2018-01-20T06:24:08.337Z,2.40
2018-01-20T06:26:36.703Z,2.40
2018-01-20T06:29:05.067Z,2.40
2018-01-20T06:31:34.208Z,2.40
2018-01-20T06:34:02.576Z,2.40
2018-01-20T06:36:30.946Z,2.50
2018-01-20T06:38:59.354Z,2.50
2018-01-20T06:41:27.725Z,2.50
2018-01-20T06:43:56.092Z,2.50
2018-01-20T06:46:24.463Z,2.50
2018-01-20T06:48:52.822Z,2.50
2018-01-20T06:51:21.354Z,2.50
2018-01-20T06:53:49.737Z,2.50
2018-01-20T06:56:18.111Z,2.40
2018-01-20T06:58:46.279Z,2.40
2018-01-20T07:01:14.664Z,2.40
2018-01-20T07:03:42.859Z,2.30
2018-01-20T07:06:11.235Z,2.30
2018-01-20T07:08:39.952Z,2.30
2018-01-20T07:11:08.131Z,2.30
2018-01-20T07:13:36.517Z,2.30
2018-01-20T07:16:04.711Z,2.30
2018-01-20T07:18:32.897Z,2.20
2018-01-20T07:21:01.251Z,2.20
2018-01-20T07:23:29.636Z,2.30
2018-01-20T07:25:57.995Z,2.20
2018-01-20T07:28:26.374Z,2.20
2018-01-20T07:30:54.815Z,2.20
2018-01-20T07:33:23.172Z,2.20
2018-01-20T07:35:51.535Z,2.20
2018-01-20T07:38:20.211Z,2.20
2018-01-20T07:40:48.581Z,2.30
2018-01-20T07:43:16.946Z,2.30
2018-01-20T07:45:45.327Z,2.20
2018-01-20T07:48:13.709Z,2.30
2018-01-20T07:50:42.075Z,2.30
2018-01-20T07:53:10.459Z,2.30
2018-01-20T07:55:38.813Z,2.30
2018-01-20T07:58:07.953Z,2.30
2018-01-20T08:00:36.604Z,2.30
2018-01-20T08:03:05.735Z,2.30
2018-01-20T08:05:34.099Z,2.30
2018-01-20T08:08:02.539Z,2.30
2018-01-20T08:10:31.677Z,2.30
2018-01-20T08:13:00.036Z,2.30
2018-01-20T08:15:28.418Z,2.30
2018-01-20T08:17:56.592Z,2.30
2018-01-20T08:20:24.956Z,2.40
2018-01-20T08:22:54.103Z,2.40
2018-01-20T08:25:22.476Z,2.40
2018-01-20T08:27:50.868Z,2.50
2018-01-20T08:30:19.595Z,2.50
2018-01-20T08:32:48.727Z,2.60
2018-01-20T08:35:17.088Z,2.60
2018-01-20T08:37:45.467Z,2.60
2018-01-20T08:40:13.831Z,2.70
2018-01-20T08:42:42.193Z,2.70
2018-01-20T08:45:11.344Z,2.70
2018-01-20T08:47:39.700Z,2.70
2018-01-20T08:50:08.078Z,2.80
2018-01-20T08:52:36.463Z,2.80
2018-01-20T08:55:04.820Z,2.90
2018-01-20T08:57:33.179Z,2.90
2018-01-20T09:00:02.696Z,3.00
2018-01-20T09:02:31.130Z,3.00
2018-01-20T09:04:59.516Z,3.00
2018-01-20T09:07:28.187Z,3.00
2018-01-20T09:09:56.571Z,3.10
2018-01-20T09:12:24.936Z,3.00
2018-01-20T09:14:53.313Z,3.10
2018-01-20T09:17:21.668Z,3.10
2018-01-20T09:19:50.039Z,3.10
2018-01-20T09:22:18.413Z,3.20
2018-01-20T09:24:46.786Z,3.20
2018-01-20T09:27:15.919Z,3.20
2018-01-20T09:29:44.304Z,3.20
2018-01-20T09:32:12.680Z,3.20
2018-01-20T09:34:41.044Z,3.30
2018-01-20T09:37:09.797Z,3.30
2018-01-20T09:39:38.919Z,3.30
2018-01-20T09:42:07.282Z,3.30
2018-01-20T09:44:35.651Z,3.30
2018-01-20T09:47:04.776Z,3.30
2018-01-20T09:49:33.160Z,3.20
2018-01-20T09:52:01.540Z,3.20
2018-01-20T09:54:29.939Z,3.20
2018-01-20T09:56:58.307Z,3.20
2018-01-20T09:59:26.845Z,3.20
2018-01-20T10:01:55.780Z,3.20
2018-01-20T10:04:24.144Z,3.20
2018-01-20T10:06:52.547Z,3.20
2018-01-20T10:09:20.911Z,3.20
2018-01-20T10:11:49.286Z,3.10
2018-01-20T10:14:19.083Z,3.20
2018-01-20T10:16:47.662Z,3.20
2018-01-20T10:19:16.036Z,3.20
2018-01-20T10:21:44.483Z,3.20
2018-01-20T10:24:13.030Z,3.20
2018-01-20T10:26:41.408Z,3.20
2018-01-20T10:29:10.167Z,3.20
2018-01-20T10:31:38.343Z,3.20
2018-01-20T10:34:06.721Z,3.20
2018-01-20T10:36:35.406Z,3.20
2018-01-20T10:39:03.320Z,3.20
2018-01-20T10:41:31.995Z,3.20
2018-01-20T10:44:00.367Z,3.10
2018-01-20T10:46:28.741Z,3.10
2018-01-20T10:48:57.122Z,3.10
2018-01-20T10:51:25.860Z,3.10
2018-01-20T10:53:54.227Z,3.10
2018-01-20T10:56:23.361Z,3.00
2018-01-20T10:58:51.767Z,3.00
2018-01-20T11:01:20.135Z,3.00
2018-01-20T11:03:48.499Z,3.00
2018-01-20T11:06:17.267Z,3.00
2018-01-20T11:08:46.576Z,3.00
2018-01-20T11:11:14.976Z,3.00
2018-01-20T11:13:43.358Z,3.00
2018-01-20T11:16:11.731Z,3.00
2018-01-20T11:18:40.106Z,3.00
2018-01-20T11:21:08.503Z,3.00
2018-01-20T11:23:36.860Z,3.00
2018-01-20T11:26:05.255Z,2.90
2018-01-20T11:28:33.646Z,2.90
2018-01-20T11:31:02.013Z,2.90
2018-01-20T11:33:31.388Z,2.90
2018-01-20T11:36:00.983Z,2.90
2018-01-20T11:38:29.338Z,2.90
2018-01-20T11:40:58.531Z,3.00
2018-01-20T11:43:26.927Z,2.90
2018-01-20T11:45:55.315Z,2.90
2018-01-20T11:48:23.671Z,2.90
2018-01-20T11:50:53.180Z,2.90
2018-01-20T11:53:22.303Z,2.90
2018-01-20T11:55:50.715Z,2.80
2018-01-20T11:58:19.589Z,2.80
2018-01-20T12:00:47.964Z,2.70
2018-01-20T12:03:16.343Z,2.70
2018-01-20T12:05:44.749Z,2.80
2018-01-20T12:08:13.116Z,2.80
2018-01-20T12:10:41.482Z,2.80
2018-01-20T12:13:10.063Z,2.70
2018-01-20T12:15:38.477Z,2.70
2018-01-20T12:18:07.640Z,2.80
2018-01-20T12:20:35.849Z,2.70
2018-01-20T12:23:04.807Z,2.70
2018-01-20T12:25:32.992Z,2.70
2018-01-20T12:28:01.765Z,2.70
2018-01-20T12:30:29.965Z,2.70
2018-01-20T12:32:58.159Z,2.70
2018-01-20T12:35:27.412Z,2.80
2018-01-20T12:37:55.591Z,2.70
2018-01-20T12:40:23.778Z,2.80
2018-01-20T12:42:52.021Z,2.70
2018-01-20T12:45:21.759Z,2.70
2018-01-20T12:47:49.986Z,2.70
2018-01-20T12:50:18.176Z,2.70
2018-01-20T12:52:46.539Z,2.70
2018-01-20T12:55:14.905Z,2.60
2018-01-20T12:57:43.342Z,2.70
2018-01-20T13:00:11.707Z,2.60
2018-01-20T13:02:40.091Z,2.60
2018-01-20T13:05:08.487Z,2.60
2018-01-20T13:07:36.865Z,2.50
2018-01-20T13:10:05.325Z,2.50
2018-01-20T13:12:41.713Z,2.50
2018-01-20T13:15:10.205Z,2.50
2018-01-20T13:17:39.336Z,2.50
2018-01-20T13:20:09.825Z,2.50
2018-01-20T13:22:38.266Z,2.50
2018-01-20T13:25:06.635Z,2.50
2018-01-20T13:27:35.061Z,2.50
2018-01-20T13:30:03.498Z,2.40
2018-01-20T13:32:31.880Z,2.40
2018-01-20T13:35:00.667Z,2.40
2018-01-20T13:37:29.078Z,2.40
2018-01-20T13:39:57.577Z,2.40
2018-01-20T13:42:26.867Z,2.30
2018-01-20T13:44:56.000Z,2.30
2018-01-20T13:47:24.375Z,2.30
2018-01-20T13:49:52.770Z,2.30
2018-01-20T13:52:21.127Z,2.30
2018-01-20T13:54:49.492Z,2.20
2018-01-20T13:57:18.283Z,2.20
2018-01-20T13:59:46.632Z,2.20
2018-01-20T14:02:15.000Z,2.20
2018-01-20T14:04:43.400Z,2.20
2018-01-20T14:07:11.765Z,2.10
2018-01-20T14:09:40.153Z,2.10
2018-01-20T14:12:08.552Z,2.10
2018-01-20T14:14:37.705Z,2.00
2018-01-20T14:17:06.248Z,2.00
2018-01-20T14:19:34.637Z,2.00
2018-01-20T14:22:03.032Z,2.00
2018-01-20T14:24:31.679Z,2.00
2018-01-20T14:27:00.151Z,1.90
2018-01-20T14:29:28.521Z,1.90
2018-01-20T14:31:57.759Z,1.90
2018-01-20T14:34:26.144Z,1.90
2018-01-20T14:36:54.516Z,1.90
2018-01-20T14:39:22.916Z,1.90
2018-01-20T14:41:51.314Z,1.80
2018-01-20T14:44:19.753Z,1.80
2018-01-20T14:46:48.143Z,1.80
2018-01-20T14:49:16.802Z,1.70
2018-01-20T14:51:45.210Z,1.70
2018-01-20T14:54:13.581Z,1.70
2018-01-20T14:56:41.959Z,1.70
2018-01-20T14:59:10.348Z,1.70
2018-01-20T15:01:38.712Z,1.70
2018-01-20T15:04:07.093Z,1.70
2018-01-20T15:06:36.948Z,1.80
2018-01-20T15:09:05.606Z,1.80
2018-01-20T15:11:34.698Z,1.80
2018-01-20T15:14:03.603Z,1.70
2018-01-20T15:16:32.013Z,1.70
2018-01-20T15:19:01.466Z,1.70
2018-01-20T15:21:29.944Z,1.70
2018-01-20T15:23:58.307Z,1.70
2018-01-20T15:26:26.689Z,1.80
2018-01-20T15:28:55.058Z,1.80
2018-01-20T15:31:24.212Z,1.80
2018-01-20T15:33:52.591Z,1.80
2018-01-20T15:36:20.991Z,1.80
2018-01-20T15:38:49.351Z,1.80
2018-01-20T15:41:18.737Z,1.80
2018-01-20T15:43:47.112Z,1.80
2018-01-20T15:46:15.507Z,1.90
2018-01-20T15:48:43.919Z,1.90
2018-01-20T15:51:12.266Z,1.80
2018-01-20T15:53:40.623Z,1.80
2018-01-20T15:56:09.344Z,1.80
2018-01-20T15:58:38.484Z,1.60
2018-01-20T16:01:06.860Z,1.60
2018-01-20T16:03:35.234Z,1.50
2018-01-20T16:06:03.603Z,1.50
2018-01-20T16:08:32.006Z,1.60
2018-01-20T16:11:00.874Z,1.60
2018-01-20T16:13:29.242Z,1.70
2018-01-20T16:15:57.605Z,1.60
2018-01-20T16:18:27.009Z,1.50
2018-01-20T16:20:56.187Z,1.50
2018-01-20T16:23:25.315Z,1.60
2018-01-20T16:25:53.705Z,1.60
2018-01-20T16:28:22.078Z,1.50
2018-01-20T16:30:50.451Z,1.40
2018-01-20T16:33:18.832Z,1.40
2018-01-20T16:35:47.193Z,1.40
2018-01-20T16:38:15.551Z,1.30
2018-01-20T16:40:44.707Z,1.30
2018-01-20T16:43:13.057Z,1.20
2018-01-20T16:45:41.475Z,1.20
2018-01-20T16:48:09.859Z,1.20
2018-01-20T16:50:38.243Z,1.30
2018-01-20T16:53:06.604Z,1.30
2018-01-20T16:55:35.031Z,1.30
2018-01-20T16:58:04.171Z,1.20
2018-01-20T17:00:32.538Z,1.20
2018-01-20T17:03:00.933Z,1.20
2018-01-20T17:05:29.346Z,1.30
2018-01-20T17:07:57.703Z,1.30
2018-01-20T17:10:26.366Z,1.30
2018-01-20T17:12:54.725Z,1.30
2018-01-20T17:15:23.100Z,1.30
2018-01-20T17:17:51.800Z,1.30
2018-01-20T17:20:20.178Z,1.30
2018-01-20T17:22:48.542Z,1.30
2018-01-20T17:25:17.678Z,1.30
2018-01-20T17:27:45.860Z,1.30
2018-01-20T17:30:14.273Z,1.30
2018-01-20T17:32:42.666Z,1.30
2018-01-20T17:35:11.041Z,1.20
2018-01-20T17:37:39.467Z,1.20
2018-01-20T17:40:08.248Z,1.20
2018-01-20T17:42:36.645Z,1.30
2018-01-20T17:45:05.619Z,1.40
2018-01-20T17:47:33.826Z,1.30
2018-01-20T17:50:03.013Z,1.20
2018-01-20T17:52:32.158Z,1.20
2018-01-20T17:55:00.546Z,1.20
2018-01-20T17:57:28.967Z,1.20
2018-01-20T17:59:57.425Z,1.20
2018-01-20T18:02:26.637Z,1.20
2018-01-20T18:04:55.009Z,1.20
2018-01-20T18:07:23.375Z,1.20
2018-01-20T18:09:51.829Z,1.10
2018-01-20T18:12:20.216Z,1.10
2018-01-20T18:14:48.587Z,1.10
2018-01-20T18:17:17.098Z,1.00
2018-01-20T18:19:45.487Z,1.10
2018-01-20T18:22:14.648Z,1.00
2018-01-20T18:24:43.064Z,1.00
2018-01-20T18:30:05.496Z,1.00
2018-01-20T18:32:33.925Z,1.00
2018-01-20T18:35:03.137Z,1.00
2018-01-20T18:37:31.580Z,1.00
2018-01-20T18:40:00.741Z,1.10
2018-01-20T18:42:29.182Z,1.00
2018-01-20T18:44:58.351Z,1.00
2018-01-20T18:47:26.736Z,1.10
2018-01-20T18:49:55.189Z,1.10
2018-01-20T18:52:23.590Z,1.00
2018-01-20T18:54:51.968Z,1.10
2018-01-20T18:57:20.376Z,1.20
2018-01-20T18:59:49.563Z,1.20
2018-01-20T19:02:17.944Z,1.10
2018-01-20T19:04:47.163Z,1.00
2018-01-20T19:07:16.316Z,1.10
2018-01-20T19:09:44.682Z,1.00
2018-01-20T19:12:13.124Z,1.00
2018-01-20T19:14:41.565Z,0.90
2018-01-20T19:17:10.014Z,0.90
2018-01-20T19:19:38.380Z,0.90
2018-01-20T19:22:06.784Z,0.90
2018-01-20T19:24:35.156Z,0.90
2018-01-20T19:27:03.519Z,0.80
2018-01-20T19:29:32.699Z,0.80
2018-01-20T19:32:01.065Z,0.80
2018-01-20T19:34:29.456Z,0.80
2018-01-20T19:36:57.852Z,0.70
2018-01-20T19:39:26.232Z,0.70
2018-01-20T19:41:54.712Z,0.70
2018-01-20T19:44:23.184Z,0.60
2018-01-20T19:46:51.549Z,0.60
2018-01-20T19:49:19.915Z,0.60
2018-01-20T19:51:49.067Z,0.60
2018-01-20T19:54:17.443Z,0.60
2018-01-20T19:56:46.206Z,0.60
2018-01-20T19:59:14.976Z,0.60
2018-01-20T20:01:43.400Z,0.60
2018-01-20T20:04:11.845Z,0.60
2018-01-20T20:06:40.799Z,0.50
2018-01-20T20:09:09.945Z,0.60
2018-01-20T20:11:38.320Z,0.50
2018-01-20T20:14:06.974Z,0.60
2018-01-20T20:16:36.104Z,0.50
2018-01-20T20:19:04.511Z,0.50
2018-01-20T20:21:33.264Z,0.50
2018-01-20T20:24:01.981Z,0.60
2018-01-20T20:26:30.404Z,0.60
2018-01-20T20:28:58.964Z,0.70
2018-01-20T20:31:28.099Z,0.80
2018-01-20T20:33:56.495Z,0.80
2018-01-20T20:36:25.961Z,0.80
2018-01-20T20:38:54.347Z,0.80
2018-01-20T20:41:22.703Z,0.70
2018-01-20T20:43:51.507Z,0.70
2018-01-20T20:46:19.915Z,0.70
2018-01-20T20:48:48.327Z,0.80
2018-01-20T20:51:17.068Z,0.70
2018-01-20T20:53:45.442Z,0.70
2018-01-20T20:56:13.907Z,0.70
2018-01-20T20:58:42.594Z,0.60
2018-01-20T21:01:10.978Z,0.60
2018-01-20T21:03:39.364Z,0.60
2018-01-20T21:06:07.764Z,0.70
2018-01-20T21:08:36.140Z,0.70
2018-01-20T21:11:04.565Z,0.70
2018-01-20T21:13:33.220Z,0.60
2018-01-20T21:16:01.614Z,0.70
2018-01-20T21:18:31.526Z,0.60
2018-01-20T21:20:59.939Z,0.60
2018-01-20T21:23:28.324Z,0.60
2018-01-20T21:25:56.704Z,0.60
2018-01-20T21:28:25.114Z,0.50
2018-01-20T21:30:53.554Z,0.50
2018-01-20T21:33:21.964Z,0.50
2018-01-20T21:35:50.699Z,0.50
2018-01-20T21:38:19.215Z,0.60
2018-01-20T21:40:47.588Z,0.60
2018-01-20T21:43:15.984Z,0.50
2018-01-20T21:45:44.363Z,0.50
2018-01-20T21:48:12.737Z,0.50
2018-01-20T21:50:41.172Z,0.50
2018-01-20T21:53:10.366Z,0.50
2018-01-20T21:55:39.525Z,0.60
2018-01-20T21:58:07.938Z,0.60
2018-01-20T22:00:36.317Z,0.60
2018-01-20T22:03:04.684Z,0.60
2018-01-20T22:05:33.076Z,0.60
2018-01-20T22:08:01.152Z,0.60
2018-01-20T22:10:30.315Z,0.60
2018-01-20T22:12:58.728Z,0.60
2018-01-20T22:15:27.904Z,0.60
2018-01-20T22:17:56.430Z,0.60
2018-01-20T22:20:24.880Z,0.60
2018-01-20T22:22:53.328Z,0.60
2018-01-20T22:25:21.701Z,0.60
2018-01-20T22:27:50.864Z,0.60
2018-01-20T22:30:19.244Z,0.60
2018-01-20T22:32:47.638Z,0.60
2018-01-20T22:35:16.028Z,0.60
2018-01-20T22:37:45.597Z,0.60
2018-01-20T22:40:14.042Z,0.60
2018-01-20T22:42:43.495Z,0.60
2018-01-20T22:45:11.908Z,0.60
2018-01-20T22:47:40.590Z,0.60
2018-01-20T22:50:08.989Z,0.60
2018-01-20T22:52:37.368Z,0.60
2018-01-20T22:55:05.755Z,0.60
2018-01-20T22:57:34.148Z,0.60
2018-01-20T23:00:03.448Z,0.70
2018-01-20T23:02:32.144Z,0.60
2018-01-20T23:05:01.308Z,0.70
2018-01-20T23:07:29.676Z,0.70
2018-01-20T23:09:58.066Z,0.70
2018-01-20T23:12:27.492Z,0.80
2018-01-20T23:14:56.703Z,0.70
2018-01-20T23:17:25.106Z,0.70
2018-01-20T23:19:53.717Z,0.70
2018-01-20T23:22:22.368Z,0.70
2018-01-20T23:24:50.756Z,0.70
2018-01-20T23:27:19.154Z,0.70
2018-01-20T23:29:47.522Z,0.70
2018-01-20T23:32:16.225Z,0.70
2018-01-20T23:34:44.632Z,0.70
2018-01-20T23:37:13.289Z,0.70
2018-01-20T23:39:41.465Z,0.70
2018-01-20T23:42:09.860Z,0.70
2018-01-20T23:44:39.091Z,0.70
2018-01-20T23:47:07.572Z,0.70
2018-01-20T23:49:35.957Z,0.70
2018-01-20T23:52:04.327Z,0.80
2018-01-20T23:54:32.712Z,0.70
2018-01-20T23:57:00.909Z,0.70
2018-01-20T23:59:29.280Z,0.70
